Time;durP1;ratioP1;P1;durP2;ratioP2;P2;SDS_P1;SDS_P2;PMS_P1;PMS_P2;Temp;Humidity;BMP_temperature;BMP_pressure;BME280_temperature;BME280_humidity;BME280_pressure;Samples;Min_cycle;Max_cycle;Signal;HPM_P1;HPM_P2
2021/10/29 00:01:52;;;;;;;5.83;3.50;;;;;;;;;;5101311;28;20288;-65
2021/10/29 00:04:20;;;;;;;5.13;3.93;;;;;;;;;;5100949;28;20263;-66
2021/10/29 00:06:50;;;;;;;7.73;3.67;;;;;;;;;;5100958;28;20210;-66
2021/10/29 00:09:18;;;;;;;6.10;3.43;;;;;;;;;;5100608;28;20755;-66
2021/10/29 00:11:46;;;;;;;4.47;2.60;;;;;;;;;;5100504;28;20284;-66
2021/10/29 00:14:14;;;;;;;4.17;2.90;;;;;;;;;;5100953;28;20209;-66
2021/10/29 00:16:42;;;;;;;3.90;2.60;;;;;;;;;;5100623;28;20231;-66
2021/10/29 00:19:10;;;;;;;5.40;2.73;;;;;;;;;;5100758;28;20226;-66
2021/10/29 00:21:38;;;;;;;2.60;2.30;;;;;;;;;;5100367;28;20205;-66
2021/10/29 00:24:07;;;;;;;3.33;2.47;;;;;;;;;;5100383;28;20217;-65
2021/10/29 00:26:35;;;;;;;3.07;2.40;;;;;;;;;;5100443;28;20288;-66
2021/10/29 00:29:03;;;;;;;2.77;2.33;;;;;;;;;;5100344;28;20226;-65
2021/10/29 00:31:31;;;;;;;5.10;2.47;;;;;;;;;;5100303;28;20575;-65
2021/10/29 00:34:00;;;;;;;3.77;2.43;;;;;;;;;;5100550;28;20241;-65
2021/10/29 00:36:28;;;;;;;2.97;2.50;;;;;;;;;;5100093;28;20216;-66
2021/10/29 00:38:56;;;;;;;4.77;2.57;;;;;;;;;;5100002;28;20232;-66
2021/10/29 00:41:25;;;;;;;4.03;3.20;;;;;;;;;;5100183;28;20216;-66
2021/10/29 00:43:53;;;;;;;6.87;2.63;;;;;;;;;;5100338;28;20228;-66
2021/10/29 00:46:22;;;;;;;5.73;2.90;;;;;;;;;;5100414;28;20265;-66
2021/10/29 00:48:51;;;;;;;3.80;2.93;;;;;;;;;;5100236;28;20293;-65
2021/10/29 00:51:19;;;;;;;7.20;3.23;;;;;;;;;;5099817;28;20239;-65
2021/10/29 00:53:48;;;;;;;5.63;2.60;;;;;;;;;;5099997;28;20296;-66
2021/10/29 00:56:16;;;;;;;4.43;2.70;;;;;;;;;;5099819;28;20564;-66
2021/10/29 00:58:46;;;;;;;4.70;2.77;;;;;;;;;;5100215;28;20236;-66
2021/10/29 01:01:14;;;;;;;4.50;3.20;;;;;;;;;;5099833;28;20296;-66
2021/10/29 01:03:43;;;;;;;3.40;2.70;;;;;;;;;;5099802;28;20201;-67
2021/10/29 01:06:11;;;;;;;3.67;2.53;;;;;;;;;;5099557;28;20233;-65
2021/10/29 01:08:41;;;;;;;4.20;2.57;;;;;;;;;;5099678;28;20226;-65
2021/10/29 01:11:16;;;;;;;3.33;2.77;;;;;;;;;;5099527;28;20728;-66
2021/10/29 01:13:46;;;;;;;4.80;2.40;;;;;;;;;;5099688;28;20227;-66
2021/10/29 01:16:14;;;;;;;5.50;3.13;;;;;;;;;;5099456;28;20350;-66
2021/10/29 01:18:43;;;;;;;4.20;2.83;;;;;;;;;;5099199;28;20225;-66
2021/10/29 01:21:12;;;;;;;2.77;2.20;;;;;;;;;;5098241;28;20206;-66
2021/10/29 01:23:40;;;;;;;5.60;2.53;;;;;;;;;;5098780;28;20285;-66
2021/10/29 01:26:10;;;;;;;3.90;2.53;;;;;;;;;;5101656;28;20280;-65
2021/10/29 01:28:38;;;;;;;3.17;2.43;;;;;;;;;;5107684;28;20766;-65
2021/10/29 01:31:07;;;;;;;2.63;2.17;;;;;;;;;;5107272;28;20240;-66
2021/10/29 01:33:35;;;;;;;5.27;2.53;;;;;;;;;;5104412;28;20202;-65
2021/10/29 01:36:04;;;;;;;5.10;2.43;;;;;;;;;;5108676;28;20288;-65
2021/10/29 01:38:34;;;;;;;2.57;2.20;;;;;;;;;;5103759;28;20692;-65
2021/10/29 01:41:03;;;;;;;4.67;2.60;;;;;;;;;;5108596;28;20221;-66
2021/10/29 01:43:31;;;;;;;3.77;2.17;;;;;;;;;;5105409;28;20264;-66
2021/10/29 01:46:00;;;;;;;2.70;2.47;;;;;;;;;;5106913;28;20665;-66
2021/10/29 01:48:28;;;;;;;2.67;2.27;;;;;;;;;;5108126;28;20276;-66
2021/10/29 01:50:55;;;;;;;2.47;2.27;;;;;;;;;;5106565;28;20231;-66
2021/10/29 01:53:24;;;;;;;4.20;2.40;;;;;;;;;;5101698;28;20209;-65
2021/10/29 01:55:54;;;;;;;4.47;2.60;;;;;;;;;;5097110;28;20285;-66
2021/10/29 01:58:22;;;;;;;3.47;2.50;;;;;;;;;;5097003;28;20304;-66
2021/10/29 02:00:50;;;;;;;5.60;2.27;;;;;;;;;;5097468;28;20197;-66
2021/10/29 02:03:18;;;;;;;4.23;2.73;;;;;;;;;;5097475;28;20273;-66
2021/10/29 02:05:46;;;;;;;5.73;2.37;;;;;;;;;;5096957;28;20221;-66
2021/10/29 02:08:14;;;;;;;4.10;2.30;;;;;;;;;;5096626;28;20221;-66
2021/10/29 02:10:42;;;;;;;2.53;2.07;;;;;;;;;;5094126;28;20218;-65
2021/10/29 02:13:12;;;;;;;3.43;2.17;;;;;;;;;;5094274;28;20265;-66
2021/10/29 02:15:40;;;;;;;2.87;2.53;;;;;;;;;;5096843;28;20197;-65
2021/10/29 02:18:08;;;;;;;4.27;2.30;;;;;;;;;;5102673;28;20214;-66
2021/10/29 02:20:36;;;;;;;4.57;2.40;;;;;;;;;;5104858;28;20198;-66
2021/10/29 02:23:04;;;;;;;2.37;2.00;;;;;;;;;;5107781;28;20813;-66
2021/10/29 02:25:32;;;;;;;3.90;2.07;;;;;;;;;;5106325;28;20296;-66
2021/10/29 02:28:00;;;;;;;3.97;2.70;;;;;;;;;;5105804;28;20771;-66
2021/10/29 02:30:29;;;;;;;4.40;2.60;;;;;;;;;;5102617;28;20595;-66
2021/10/29 02:32:57;;;;;;;2.43;1.90;;;;;;;;;;5095666;28;20288;-65
2021/10/29 02:35:25;;;;;;;4.93;2.23;;;;;;;;;;5097456;28;20197;-65
2021/10/29 02:37:53;;;;;;;4.80;2.33;;;;;;;;;;5098013;28;20292;-65
2021/10/29 02:40:21;;;;;;;3.70;2.10;;;;;;;;;;5098189;28;20265;-65
2021/10/29 02:42:49;;;;;;;4.73;2.10;;;;;;;;;;5097888;28;20236;-65
2021/10/29 02:45:17;;;;;;;2.57;2.10;;;;;;;;;;5097955;28;20241;-66
2021/10/29 02:47:48;;;;;;;3.17;1.93;;;;;;;;;;5098064;28;20237;-66
2021/10/29 02:50:16;;;;;;;2.70;2.00;;;;;;;;;;5097823;28;20260;-65
2021/10/29 02:52:45;;;;;;;3.90;2.10;;;;;;;;;;5098040;28;20268;-65
2021/10/29 02:55:13;;;;;;;3.40;1.93;;;;;;;;;;5097915;28;20216;-65
2021/10/29 02:57:41;;;;;;;5.33;2.10;;;;;;;;;;5097415;28;20288;-66
2021/10/29 03:00:11;;;;;;;2.20;1.93;;;;;;;;;;5097451;28;20564;-65
2021/10/29 03:02:40;;;;;;;3.30;2.33;;;;;;;;;;5097940;28;20292;-65
2021/10/29 03:05:10;;;;;;;2.90;1.90;;;;;;;;;;5097514;28;20255;-65
2021/10/29 03:07:38;;;;;;;2.33;2.10;;;;;;;;;;5097740;28;20676;-65
2021/10/29 03:10:06;;;;;;;3.67;2.63;;;;;;;;;;5097746;28;20225;-65
2021/10/29 03:12:34;;;;;;;4.57;2.30;;;;;;;;;;5097456;28;20691;-65
2021/10/29 03:15:03;;;;;;;7.67;2.67;;;;;;;;;;5097995;28;20288;-65
2021/10/29 03:17:31;;;;;;;3.37;2.60;;;;;;;;;;5097571;28;20244;-65
2021/10/29 03:19:59;;;;;;;3.00;2.50;;;;;;;;;;5097661;28;20230;-65
2021/10/29 03:22:29;;;;;;;4.47;2.80;;;;;;;;;;5097791;28;20315;-65
2021/10/29 03:24:57;;;;;;;5.17;2.87;;;;;;;;;;5097602;28;20205;-65
2021/10/29 03:27:25;;;;;;;5.57;2.83;;;;;;;;;;5097383;28;20297;-65
2021/10/29 03:29:53;;;;;;;5.67;2.67;;;;;;;;;;5097629;28;20223;-65
2021/10/29 03:32:22;;;;;;;5.97;2.50;;;;;;;;;;5097647;28;20668;-65
2021/10/29 03:34:50;;;;;;;6.30;2.83;;;;;;;;;;5097783;28;20291;-65
2021/10/29 03:37:32;;;;;;;4.80;2.33;;;;;;;;;;5097311;28;20209;-65
2021/10/29 03:40:09;;;;;;;3.93;3.53;;;;;;;;;;5097571;28;20256;-65
2021/10/29 03:42:42;;;;;;;6.33;2.87;;;;;;;;;;5096866;28;20208;-65
2021/10/29 03:45:13;;;;;;;4.80;2.60;;;;;;;;;;5097082;28;20288;-65
2021/10/29 03:47:46;;;;;;;4.43;3.00;;;;;;;;;;5097511;28;20236;-65
2021/10/29 03:50:19;;;;;;;3.90;3.00;;;;;;;;;;5096826;28;20296;-65
2021/10/29 03:52:58;;;;;;;4.43;2.97;;;;;;;;;;5097575;28;20293;-65
2021/10/29 03:55:33;;;;;;;7.97;3.80;;;;;;;;;;5097408;28;20269;-65
2021/10/29 03:58:01;;;;;;;5.57;3.10;;;;;;;;;;5096968;28;20248;-65
2021/10/29 04:00:32;;;;;;;5.57;3.00;;;;;;;;;;5097232;28;20292;-65
2021/10/29 04:03:02;;;;;;;6.53;3.57;;;;;;;;;;5097134;28;20266;-65
2021/10/29 04:05:30;;;;;;;4.10;3.30;;;;;;;;;;5096992;28;20713;-65
2021/10/29 04:07:59;;;;;;;4.07;3.10;;;;;;;;;;5097195;28;20313;-65
2021/10/29 04:10:29;;;;;;;5.47;3.70;;;;;;;;;;5096924;28;20289;-65
2021/10/29 04:12:59;;;;;;;5.80;3.70;;;;;;;;;;5098921;28;20244;-65
2021/10/29 04:15:27;;;;;;;5.10;3.83;;;;;;;;;;5100989;28;20288;-65
2021/10/29 04:17:55;;;;;;;4.73;3.00;;;;;;;;;;5100577;28;20655;-65
2021/10/29 04:20:24;;;;;;;5.27;3.27;;;;;;;;;;5100764;28;20232;-65
2021/10/29 04:22:52;;;;;;;3.93;3.33;;;;;;;;;;5100780;28;20269;-65
2021/10/29 04:25:21;;;;;;;4.80;3.37;;;;;;;;;;5100683;28;20205;-65
2021/10/29 04:27:57;;;;;;;3.97;3.10;;;;;;;;;;5100481;28;20206;-65
2021/10/29 04:30:26;;;;;;;6.10;3.00;;;;;;;;;;5095261;28;20205;-65
2021/10/29 04:32:54;;;;;;;3.67;3.30;;;;;;;;;;5099831;28;20202;-65
2021/10/29 04:35:22;;;;;;;5.33;3.40;;;;;;;;;;5100367;28;20292;-65
2021/10/29 04:37:50;;;;;;;7.53;3.53;;;;;;;;;;5100465;28;20216;-65
2021/10/29 04:40:18;;;;;;;4.37;3.60;;;;;;;;;;5100345;28;20269;-66
2021/10/29 04:42:46;;;;;;;5.40;3.60;;;;;;;;;;5100198;28;20286;-65
2021/10/29 04:45:16;;;;;;;6.47;4.40;;;;;;;;;;5100364;28;20208;-65
2021/10/29 04:47:45;;;;;;;5.80;3.90;;;;;;;;;;5100058;28;20241;-65
2021/10/29 04:50:14;;;;;;;7.50;3.93;;;;;;;;;;5098692;28;20237;-65
2021/10/29 04:52:42;;;;;;;5.40;3.97;;;;;;;;;;5098655;28;20225;-65
2021/10/29 04:55:10;;;;;;;5.90;3.83;;;;;;;;;;5099673;28;20210;-65
2021/10/29 04:57:38;;;;;;;5.80;3.83;;;;;;;;;;5099158;28;20249;-65
2021/10/29 05:00:07;;;;;;;4.47;3.70;;;;;;;;;;5099902;28;20210;-65
2021/10/29 05:02:36;;;;;;;9.27;4.50;;;;;;;;;;5099269;28;20755;-65
2021/10/29 05:05:06;;;;;;;6.73;4.33;;;;;;;;;;5098917;28;20238;-65
2021/10/29 05:07:34;;;;;;;7.57;4.10;;;;;;;;;;5098978;28;20228;-66
2021/10/29 05:10:02;;;;;;;4.23;3.73;;;;;;;;;;5097998;28;20212;-64
2021/10/29 05:12:31;;;;;;;8.47;3.70;;;;;;;;;;5098575;28;20789;-64
2021/10/29 05:14:59;;;;;;;6.03;3.23;;;;;;;;;;5099134;28;20198;-64
2021/10/29 05:17:27;;;;;;;7.57;4.40;;;;;;;;;;5099503;28;20233;-64
2021/10/29 05:19:56;;;;;;;5.07;3.20;;;;;;;;;;5099445;28;20392;-64
2021/10/29 05:22:24;;;;;;;5.27;3.83;;;;;;;;;;5099397;28;20201;-65
2021/10/29 05:24:52;;;;;;;5.83;3.93;;;;;;;;;;5099439;28;20656;-64
2021/10/29 05:27:20;;;;;;;4.33;3.40;;;;;;;;;;5099187;28;20206;-66
2021/10/29 05:29:52;;;;;;;6.83;4.13;;;;;;;;;;5098878;28;20244;-64
2021/10/29 05:32:20;;;;;;;8.10;4.10;;;;;;;;;;5099414;28;20241;-64
2021/10/29 05:34:48;;;;;;;5.20;3.80;;;;;;;;;;5099072;28;20727;-64
2021/10/29 05:37:17;;;;;;;7.23;4.03;;;;;;;;;;5099414;28;20375;-64
2021/10/29 05:39:45;;;;;;;7.30;3.30;;;;;;;;;;5098789;28;20627;-64
2021/10/29 05:42:14;;;;;;;4.83;3.47;;;;;;;;;;5098810;28;20202;-65
2021/10/29 05:44:42;;;;;;;8.73;3.80;;;;;;;;;;5098501;28;20204;-64
2021/10/29 05:47:10;;;;;;;6.87;3.53;;;;;;;;;;5098947;28;20201;-64
2021/10/29 05:49:38;;;;;;;8.20;3.43;;;;;;;;;;5098461;28;20294;-64
2021/10/29 05:52:06;;;;;;;7.73;3.80;;;;;;;;;;5097830;28;20231;-64
2021/10/29 05:55:01;;;;;;;7.60;3.47;;;;;;;;;;5098269;28;20207;-65
2021/10/29 05:57:28;;;;;;;6.20;3.53;;;;;;;;;;5096966;28;20282;-65
2021/10/29 05:59:56;;;;;;;4.87;3.57;;;;;;;;;;5095518;28;20288;-64
2021/10/29 06:02:24;;;;;;;6.70;4.10;;;;;;;;;;5097468;28;20280;-64
2021/10/29 06:04:53;;;;;;;7.23;4.10;;;;;;;;;;5097464;28;20233;-65
2021/10/29 06:07:21;;;;;;;4.20;3.17;;;;;;;;;;5096821;28;20697;-65
2021/10/29 06:09:50;;;;;;;5.30;2.93;;;;;;;;;;5098128;28;20308;-65
2021/10/29 06:12:18;;;;;;;5.53;2.80;;;;;;;;;;5097830;28;20771;-65
2021/10/29 06:14:47;;;;;;;5.83;2.90;;;;;;;;;;5098259;28;20237;-65
2021/10/29 06:17:17;;;;;;;3.83;2.67;;;;;;;;;;5098466;28;20259;-65
2021/10/29 06:19:45;;;;;;;7.00;2.67;;;;;;;;;;5098169;28;20395;-65
2021/10/29 06:22:17;;;;;;;2.67;2.03;;;;;;;;;;5098944;28;20208;-65
2021/10/29 06:24:46;;;;;;;2.87;2.37;;;;;;;;;;5098329;28;20244;-65
2021/10/29 06:29:57;;;;;;;5.00;2.67;;;;;;;;;;5097455;28;20221;-64
2021/10/29 06:32:26;;;;;;;5.07;2.50;;;;;;;;;;5097775;28;20286;-65
2021/10/29 06:34:54;;;;;;;5.07;2.53;;;;;;;;;;5097059;28;20285;-65
2021/10/29 06:37:22;;;;;;;4.53;2.77;;;;;;;;;;5094620;28;20277;-65
2021/10/29 06:39:50;;;;;;;7.70;3.07;;;;;;;;;;5096200;28;20221;-65
2021/10/29 06:42:22;;;;;;;6.87;2.60;;;;;;;;;;5093380;28;20215;-65
2021/10/29 06:45:02;;;;;;;5.90;2.70;;;;;;;;;;5097157;28;20324;-65
2021/10/29 06:47:45;;;;;;;4.03;2.20;;;;;;;;;;5096745;28;20209;-65
2021/10/29 07:01:23;;;;;;;3.40;2.53;;;;;;;;;;5097617;28;20209;-64
2021/10/29 07:04:22;;;;;;;4.97;2.23;;;;;;;;;;5097480;28;20205;-65
2021/10/29 07:40:01;;;;;;;5.20;3.33;;;;;;;;;;5093131;28;20244;-63
2021/10/29 07:42:34;;;;;;;5.93;3.60;;;;;;;;;;5096881;28;20281;-64
2021/10/29 07:45:02;;;;;;;5.50;3.00;;;;;;;;;;5092023;28;20284;-64
2021/10/29 07:47:31;;;;;;;3.43;2.33;;;;;;;;;;5097893;28;20301;-64
2021/10/29 07:50:00;;;;;;;7.83;3.13;;;;;;;;;;5101250;28;20229;-64
2021/10/29 07:52:28;;;;;;;12.40;3.00;;;;;;;;;;5101062;28;20286;-64
2021/10/29 07:54:56;;;;;;;7.57;3.27;;;;;;;;;;5100810;28;20292;-64
2021/10/29 07:57:24;;;;;;;4.27;2.33;;;;;;;;;;5099960;28;20639;-65
2021/10/29 07:59:53;;;;;;;6.27;2.77;;;;;;;;;;5097606;28;20583;-64
2021/10/29 08:02:22;;;;;;;5.20;3.20;;;;;;;;;;5099583;28;20225;-64
2021/10/29 08:04:52;;;;;;;8.13;3.63;;;;;;;;;;5098946;28;20233;-65
2021/10/29 08:07:20;;;;;;;6.07;3.13;;;;;;;;;;5098029;28;20219;-64
2021/10/29 08:09:48;;;;;;;4.57;2.63;;;;;;;;;;5099997;28;20218;-65
2021/10/29 08:12:18;;;;;;;5.33;2.87;;;;;;;;;;5098263;28;20202;-65
2021/10/29 08:14:47;;;;;;;6.90;3.40;;;;;;;;;;5100156;28;20288;-64
2021/10/29 08:17:16;;;;;;;5.93;2.87;;;;;;;;;;5099881;28;20747;-64
2021/10/29 08:19:44;;;;;;;8.63;3.57;;;;;;;;;;5100225;28;20300;-64
2021/10/29 08:22:15;;;;;;;8.93;3.43;;;;;;;;;;5100045;28;20208;-63
2021/10/29 08:24:43;;;;;;;10.83;3.37;;;;;;;;;;5100138;28;20288;-64
2021/10/29 08:27:12;;;;;;;4.90;3.00;;;;;;;;;;5100563;28;20290;-64
2021/10/29 08:29:40;;;;;;;6.67;3.03;;;;;;;;;;5099481;28;20225;-66
2021/10/29 08:32:08;;;;;;;6.23;3.33;;;;;;;;;;5099879;28;20538;-67
2021/10/29 08:34:36;;;;;;;9.57;3.33;;;;;;;;;;5099774;28;20226;-64
2021/10/29 08:37:05;;;;;;;3.90;3.40;;;;;;;;;;5099354;28;20201;-65
2021/10/29 08:39:37;;;;;;;5.80;3.03;;;;;;;;;;5099219;28;20647;-65
2021/10/29 08:42:05;;;;;;;9.27;2.70;;;;;;;;;;5099801;28;20636;-65
2021/10/29 08:44:34;;;;;;;5.23;2.43;;;;;;;;;;5099831;28;20201;-64
2021/10/29 08:47:04;;;;;;;6.07;2.30;;;;;;;;;;5099963;28;20224;-64
2021/10/29 08:49:32;;;;;;;4.17;2.20;;;;;;;;;;5099869;28;20225;-64
2021/10/29 08:52:07;;;;;;;2.97;2.00;;;;;;;;;;5092490;28;20621;-64
2021/10/29 08:54:36;;;;;;;5.40;2.20;;;;;;;;;;5099882;28;20244;-63
2021/10/29 08:57:05;;;;;;;3.90;2.10;;;;;;;;;;5098876;28;20615;-65
2021/10/29 08:59:34;;;;;;;5.07;2.07;;;;;;;;;;5098874;28;20213;-65
2021/10/29 09:02:06;;;;;;;5.23;2.50;;;;;;;;;;5098804;28;20276;-64
2021/10/29 09:04:46;;;;;;;3.70;2.17;;;;;;;;;;5098808;28;20274;-64
2021/10/29 09:32:36;;;;;;;2.27;1.70;;;;;;;;;;5114854;28;20229;-64
2021/10/29 09:35:09;;;;;;;2.53;2.10;;;;;;;;;;5114522;28;20312;-64
2021/10/29 09:37:51;;;;;;;2.47;1.80;;;;;;;;;;5114617;28;20236;-64
2021/10/29 09:40:20;;;;;;;3.60;2.13;;;;;;;;;;5114574;28;20292;-64
2021/10/29 09:42:50;;;;;;;1.57;1.47;;;;;;;;;;5114373;28;20209;-64
2021/10/29 09:45:21;;;;;;;4.33;1.90;;;;;;;;;;5110248;28;20205;-65
2021/10/29 09:47:55;;;;;;;4.60;2.07;;;;;;;;;;5114697;28;20269;-64
2021/10/29 09:50:25;;;;;;;4.60;1.83;;;;;;;;;;5104976;28;20632;-64
2021/10/29 09:53:09;;;;;;;1.67;1.57;;;;;;;;;;5100683;28;20776;-64
2021/10/29 09:58:23;;;;;;;3.53;1.73;;;;;;;;;;5100848;28;20775;-65
2021/10/29 10:00:52;;;;;;;3.10;1.77;;;;;;;;;;5102426;28;20292;-64
2021/10/29 10:03:22;;;;;;;4.00;1.80;;;;;;;;;;5100728;28;20198;-64
2021/10/29 10:05:56;;;;;;;4.63;2.00;;;;;;;;;;5102010;28;20229;-64
2021/10/29 10:08:26;;;;;;;8.23;2.13;;;;;;;;;;5099993;28;20249;-64
2021/10/29 10:10:58;;;;;;;3.67;2.03;;;;;;;;;;5099102;28;20238;-64
2021/10/29 10:13:27;;;;;;;3.00;1.67;;;;;;;;;;5102131;28;20211;-64
2021/10/29 10:15:59;;;;;;;4.77;1.60;;;;;;;;;;5101735;28;20760;-64
2021/10/29 10:18:27;;;;;;;1.87;1.43;;;;;;;;;;5101827;28;20313;-64
2021/10/29 10:20:56;;;;;;;2.37;1.27;;;;;;;;;;5101636;28;20265;-64
2021/10/29 10:23:30;;;;;;;1.97;1.57;;;;;;;;;;5090704;28;20276;-64
2021/10/29 10:26:13;;;;;;;7.50;1.90;;;;;;;;;;5085416;28;20558;-64
2021/10/29 10:45:56;;;;;;;1.47;1.37;;;;;;;;;;5084638;28;20255;-65
2021/10/29 10:48:30;;;;;;;1.30;1.10;;;;;;;;;;5087527;28;20241;-65
2021/10/29 10:51:12;;;;;;;2.43;1.67;;;;;;;;;;5088151;28;20310;-65
2021/10/29 10:53:48;;;;;;;1.50;1.40;;;;;;;;;;5082934;28;20202;-66
2021/10/29 10:56:35;;;;;;;2.93;1.60;;;;;;;;;;5085059;28;20205;-65
2021/10/29 10:59:27;;;;;;;2.33;1.40;;;;;;;;;;5086770;28;20247;-65
2021/10/29 11:10:22;;;;;;;1.40;1.30;;;;;;;;;;5074665;28;20705;-65
2021/10/29 11:13:09;;;;;;;2.40;1.57;;;;;;;;;;5081374;28;20291;-65
2021/10/29 11:15:38;;;;;;;8.63;1.60;;;;;;;;;;5085319;28;20204;-65
2021/10/29 11:18:33;;;;;;;4.83;1.80;;;;;;;;;;5090164;28;20267;-65
2021/10/29 11:21:08;;;;;;;3.53;1.50;;;;;;;;;;5089611;28;20197;-65
2021/10/29 11:23:36;;;;;;;6.07;1.30;;;;;;;;;;5090062;28;20657;-69
2021/10/29 11:26:05;;;;;;;3.27;1.47;;;;;;;;;;5098627;28;20296;-65
2021/10/29 11:28:34;;;;;;;1.50;1.30;;;;;;;;;;5098134;28;20577;-65
2021/10/29 11:31:04;;;;;;;1.90;1.57;;;;;;;;;;5094363;28;20289;-65
2021/10/29 11:33:32;;;;;;;3.10;1.53;;;;;;;;;;5089509;28;20221;-65
2021/10/29 11:36:02;;;;;;;4.73;1.50;;;;;;;;;;5097928;28;20284;-65
2021/10/29 11:38:31;;;;;;;5.67;1.70;;;;;;;;;;5099087;28;20307;-65
2021/10/29 11:41:00;;;;;;;3.27;1.87;;;;;;;;;;5098838;28;20209;-64
2021/10/29 11:43:30;;;;;;;1.40;1.30;;;;;;;;;;5099002;28;20197;-63
2021/10/29 11:45:58;;;;;;;2.10;1.40;;;;;;;;;;5116562;28;20204;-65
2021/10/29 11:48:27;;;;;;;2.23;1.27;;;;;;;;;;5119503;28;20225;-65
2021/10/29 11:51:08;;;;;;;2.83;1.53;;;;;;;;;;5107468;28;20292;-65
2021/10/29 11:53:42;;;;;;;3.70;1.40;;;;;;;;;;5098966;28;20286;-64
2021/10/29 11:56:24;;;;;;;4.53;1.37;;;;;;;;;;5098674;28;20215;-65
2021/10/29 11:59:06;;;;;;;3.13;1.40;;;;;;;;;;5098883;28;20227;-65
2021/10/29 12:01:37;;;;;;;2.37;1.20;;;;;;;;;;5098932;28;20207;-65
2021/10/29 12:09:40;;;;;;;5.83;1.47;;;;;;;;;;5095008;28;20308;-65
2021/10/29 12:12:10;;;;;;;3.80;1.20;;;;;;;;;;5098252;28;20312;-65
2021/10/29 12:14:39;;;;;;;3.23;1.50;;;;;;;;;;5098661;28;20232;-65
2021/10/29 12:17:09;;;;;;;2.87;1.47;;;;;;;;;;5098245;28;20284;-65
2021/10/29 12:19:39;;;;;;;1.50;1.40;;;;;;;;;;5098231;28;20313;-67
2021/10/29 12:22:19;;;;;;;6.53;1.10;;;;;;;;;;5099030;28;20208;-65
2021/10/29 12:24:52;;;;;;;4.13;1.40;;;;;;;;;;5098216;28;20200;-64
2021/10/29 12:27:27;;;;;;;4.17;1.40;;;;;;;;;;5095989;28;20198;-67
2021/10/29 12:30:04;;;;;;;1.47;1.37;;;;;;;;;;5096381;28;20303;-65
2021/10/29 12:32:46;;;;;;;3.57;1.60;;;;;;;;;;5098271;28;20308;-66
2021/10/29 12:38:29;;;;;;;1.23;1.10;;;;;;;;;;5094508;28;20221;-66
2021/10/29 12:52:32;;;;;;;4.90;2.47;;;;;;;;;;5095882;28;20208;-65
2021/10/29 13:03:36;;;;;;;3.00;1.90;;;;;;;;;;5096100;28;20201;-65
2021/10/29 13:06:05;;;;;;;5.07;1.40;;;;;;;;;;5098244;28;20201;-66
2021/10/29 13:08:36;;;;;;;4.90;1.60;;;;;;;;;;5098417;28;20236;-65
2021/10/29 13:11:04;;;;;;;1.60;1.50;;;;;;;;;;5096066;28;20227;-65
2021/10/29 13:13:38;;;;;;;1.67;1.57;;;;;;;;;;5096968;28;20221;-65
2021/10/29 13:16:09;;;;;;;2.43;1.67;;;;;;;;;;5097408;28;20288;-65
2021/10/29 13:18:53;;;;;;;1.73;1.57;;;;;;;;;;5096444;28;20221;-65
2021/10/29 13:35:33;;;;;;;2.63;1.50;;;;;;;;;;5095792;28;20282;-65
2021/10/29 13:52:09;;;;;;;2.37;1.50;;;;;;;;;;5096690;28;20639;-65
2021/10/29 13:54:47;;;;;;;3.33;1.60;;;;;;;;;;5097407;28;20228;-65
2021/10/29 13:57:35;;;;;;;1.97;1.50;;;;;;;;;;5098185;28;20236;-65
2021/10/29 14:00:24;;;;;;;3.33;1.37;;;;;;;;;;5097761;28;20197;-65
2021/10/29 14:16:58;;;;;;;2.97;1.60;;;;;;;;;;5098774;28;20226;-65
2021/10/29 14:30:31;;;;;;;2.40;2.20;;;;;;;;;;5095576;28;20225;-66
2021/10/29 14:33:04;;;;;;;4.53;1.67;;;;;;;;;;5097434;28;20289;-66
2021/10/29 14:35:36;;;;;;;2.43;2.00;;;;;;;;;;5100148;28;20288;-66
2021/10/29 14:38:13;;;;;;;5.23;1.83;;;;;;;;;;5101445;28;20217;-66
2021/10/29 14:40:45;;;;;;;2.97;1.97;;;;;;;;;;5088558;28;20277;-65
2021/10/29 14:43:16;;;;;;;5.13;1.80;;;;;;;;;;5088051;28;20202;-65
2021/10/29 14:45:52;;;;;;;3.47;1.57;;;;;;;;;;5086567;28;20198;-65
2021/10/29 14:48:33;;;;;;;3.03;1.50;;;;;;;;;;5089420;28;20692;-65
2021/10/29 15:02:39;;;;;;;1.97;1.70;;;;;;;;;;5086533;28;20323;-67
2021/10/29 15:05:21;;;;;;;1.90;1.70;;;;;;;;;;5085898;28;20198;-66
2021/10/29 15:24:59;;;;;;;3.23;1.50;;;;;;;;;;5135749;27;20199;-67
2021/10/29 15:27:44;;;;;;;1.83;1.40;;;;;;;;;;5140571;27;20278;-67
2021/10/29 15:30:15;;;;;;;1.77;1.63;;;;;;;;;;5131901;27;20328;-67
2021/10/29 15:32:54;;;;;;;4.73;2.47;;;;;;;;;;5151655;27;20262;-68
2021/10/29 15:44:04;;;;;;;3.33;1.80;;;;;;;;;;5098546;27;20211;-66
2021/10/29 15:46:37;;;;;;;2.93;1.73;;;;;;;;;;5135595;27;20291;-67
2021/10/29 15:49:08;;;;;;;1.50;1.40;;;;;;;;;;5135155;27;20303;-68
2021/10/29 15:51:38;;;;;;;4.30;1.67;;;;;;;;;;5135347;27;20213;-67
2021/10/29 15:54:07;;;;;;;3.80;1.70;;;;;;;;;;5135028;27;20730;-67
2021/10/29 15:56:40;;;;;;;3.43;1.90;;;;;;;;;;5135110;27;20214;-67
2021/10/29 15:59:17;;;;;;;1.83;1.63;;;;;;;;;;5135254;27;20291;-67
2021/10/29 16:01:49;;;;;;;3.33;2.20;;;;;;;;;;5135258;27;20271;-67
2021/10/29 16:18:06;;;;;;;3.67;2.13;;;;;;;;;;5134358;27;20706;-68
2021/10/29 16:20:34;;;;;;;2.97;1.60;;;;;;;;;;5134569;27;20235;-68
2021/10/29 16:23:04;;;;;;;1.40;1.30;;;;;;;;;;5134726;27;20268;-68
2021/10/29 16:25:35;;;;;;;2.30;1.67;;;;;;;;;;5130303;27;20279;-67
2021/10/29 16:28:04;;;;;;;1.50;1.40;;;;;;;;;;5140282;27;20222;-67
2021/10/29 16:30:33;;;;;;;3.07;1.40;;;;;;;;;;5118044;28;20284;-67
2021/10/29 16:33:07;;;;;;;1.50;1.40;;;;;;;;;;5135711;27;20227;-66
2021/10/29 16:35:36;;;;;;;4.00;1.90;;;;;;;;;;5141281;27;20284;-65
2021/10/29 16:38:06;;;;;;;1.87;1.57;;;;;;;;;;5140259;27;20335;-65
2021/10/29 16:40:35;;;;;;;2.80;1.70;;;;;;;;;;5120331;28;20643;-65
2021/10/29 16:43:05;;;;;;;1.80;1.40;;;;;;;;;;5120842;28;20205;-68
2021/10/29 16:45:33;;;;;;;4.97;1.73;;;;;;;;;;5120702;27;20293;-67
2021/10/29 16:48:01;;;;;;;1.93;1.60;;;;;;;;;;5109681;28;20217;-63
2021/10/29 16:50:29;;;;;;;5.50;1.80;;;;;;;;;;5108222;28;20656;-64
2021/10/29 16:52:57;;;;;;;2.13;1.70;;;;;;;;;;5105633;28;20673;-65
2021/10/29 16:55:27;;;;;;;1.93;1.73;;;;;;;;;;5108576;28;20235;-65
2021/10/29 16:57:56;;;;;;;2.90;1.60;;;;;;;;;;5106000;28;20267;-62
2021/10/29 17:00:24;;;;;;;2.10;1.90;;;;;;;;;;5108199;28;20201;-63
2021/10/29 17:02:52;;;;;;;2.07;1.73;;;;;;;;;;5108018;28;20280;-61
2021/10/29 17:05:21;;;;;;;2.53;1.60;;;;;;;;;;5106882;28;20259;-61
2021/10/29 17:07:49;;;;;;;2.20;2.00;;;;;;;;;;5108197;28;20207;-62
2021/10/29 17:10:19;;;;;;;3.87;2.20;;;;;;;;;;5105962;28;20284;-61
2021/10/29 17:12:49;;;;;;;2.83;2.10;;;;;;;;;;5107940;28;20640;-63
2021/10/29 17:15:18;;;;;;;2.20;1.87;;;;;;;;;;5108532;28;20559;-63
2021/10/29 17:17:47;;;;;;;3.83;1.90;;;;;;;;;;5119451;28;20331;-63
2021/10/29 17:20:16;;;;;;;4.33;2.43;;;;;;;;;;5119482;28;20243;-65
2021/10/29 17:22:44;;;;;;;6.93;2.03;;;;;;;;;;5119353;28;20731;-63
2021/10/29 17:25:13;;;;;;;2.47;2.27;;;;;;;;;;5118385;28;20244;-62
2021/10/29 17:27:42;;;;;;;3.77;1.77;;;;;;;;;;5135544;27;20848;-62
2021/10/29 17:30:13;;;;;;;3.47;2.60;;;;;;;;;;5116048;27;20214;-64
2021/10/29 17:32:41;;;;;;;4.23;2.20;;;;;;;;;;5139142;27;20229;-64
2021/10/29 17:35:10;;;;;;;1.90;1.80;;;;;;;;;;5140159;27;20295;-65
2021/10/29 17:37:38;;;;;;;3.30;2.27;;;;;;;;;;5139676;27;20296;-65
2021/10/29 17:40:07;;;;;;;7.47;5.23;;;;;;;;;;5121631;27;20311;-64
2021/10/29 17:42:36;;;;;;;2.83;1.93;;;;;;;;;;5111031;28;20624;-66
2021/10/29 17:45:07;;;;;;;4.27;2.43;;;;;;;;;;5107331;28;20288;-66
2021/10/29 17:47:37;;;;;;;3.47;2.33;;;;;;;;;;5106879;28;20539;-66
2021/10/29 17:50:05;;;;;;;5.50;2.67;;;;;;;;;;5118859;28;20564;-65
2021/10/29 17:52:33;;;;;;;4.40;2.50;;;;;;;;;;5119189;28;20264;-66
2021/10/29 17:55:01;;;;;;;3.53;2.23;;;;;;;;;;5119452;28;20291;-63
2021/10/29 17:57:30;;;;;;;2.97;2.17;;;;;;;;;;5119172;28;20263;-65
2021/10/29 17:59:58;;;;;;;3.33;2.77;;;;;;;;;;5119039;28;20324;-65
2021/10/29 18:02:27;;;;;;;4.07;2.20;;;;;;;;;;5119133;27;20205;-64
2021/10/29 18:04:58;;;;;;;3.50;2.40;;;;;;;;;;5118961;28;20291;-65
2021/10/29 18:07:27;;;;;;;3.50;1.90;;;;;;;;;;5119063;27;20240;-65
2021/10/29 18:09:56;;;;;;;2.30;2.10;;;;;;;;;;5118654;28;20221;-64
2021/10/29 18:12:24;;;;;;;4.17;2.33;;;;;;;;;;5118722;27;20209;-64
2021/10/29 18:14:52;;;;;;;5.37;2.70;;;;;;;;;;5118607;28;20644;-65
2021/10/29 18:17:20;;;;;;;2.03;1.87;;;;;;;;;;5118569;28;20775;-65
2021/10/29 18:19:48;;;;;;;3.13;2.30;;;;;;;;;;5118406;28;20232;-65
2021/10/29 18:22:18;;;;;;;6.47;2.63;;;;;;;;;;5119217;28;20288;-66
2021/10/29 18:24:46;;;;;;;4.70;4.30;;;;;;;;;;5118985;28;20232;-65
2021/10/29 18:27:16;;;;;;;4.40;2.13;;;;;;;;;;5110767;28;20205;-64
2021/10/29 18:29:45;;;;;;;4.43;2.60;;;;;;;;;;5116114;27;20227;-64
2021/10/29 18:32:14;;;;;;;6.83;3.07;;;;;;;;;;5117454;28;20293;-64
2021/10/29 18:34:47;;;;;;;3.43;2.30;;;;;;;;;;5118749;28;20292;-64
2021/10/29 18:37:16;;;;;;;3.57;2.53;;;;;;;;;;5118609;28;20283;-65
2021/10/29 18:39:46;;;;;;;3.07;2.63;;;;;;;;;;5118343;28;20316;-64
2021/10/29 18:42:14;;;;;;;5.00;3.37;;;;;;;;;;5117784;28;20261;-65
2021/10/29 18:44:42;;;;;;;8.10;4.33;;;;;;;;;;5106069;28;20248;-69
2021/10/29 18:47:11;;;;;;;3.77;2.80;;;;;;;;;;5106884;28;20201;-68
2021/10/29 18:49:39;;;;;;;4.17;2.70;;;;;;;;;;5107092;28;20300;-66
2021/10/29 18:52:07;;;;;;;4.90;2.43;;;;;;;;;;5105787;28;20196;-66
2021/10/29 18:54:36;;;;;;;3.73;2.60;;;;;;;;;;5106712;28;20231;-68
2021/10/29 18:57:08;;;;;;;4.10;2.90;;;;;;;;;;5107839;28;20296;-65